x

Delaware Bay 26 Nm Southeast Of Cape May, Nj (44009) Wave Buoy

11:50pm - Thu 16th Aug 2018 All times are EDT. -4 hours from GMT.

  • Sig Wave height 1.6ft
  • Swell Direction
  • Peak Period 8s
  • Average Period 5s
  • Wind
    7mph, 9mph gusts
  • Sea Temp 78°f
  • Air Temp 81°f
  • Sea Pressure 1020.3mb
  • Delaware Bay 26 Nm Southeast Of Cape May, Nj
  • Delaware Bay 26 Nm Southeast Of Cape May, Nj

More Historic Weather Station data

Upgrade to MSW Pro to gain access to the past 30 days of data for over 8000 Wavebouys and Weather Stations around the globe.

Join

Comparision Forecast

View Surf forecast
   
Thu 08/16 11:50pm 1.6ft 8s 5s 7 9 mph 1020.3mb 78f 81f
9:50pm 1.6ft 8s 5s 9 11 mph 1020.3mb 78f 81f
8:50pm 1.6ft 8s 4s 9 11 mph 1019.9mb 78f 81f
7:50pm 1.3ft 7s 5s 11 13 mph 1019.5mb 78f 82f
6:50pm 1.3ft 8s 5s 11 11 mph 1019.1mb 78f 83f
5:50pm 1.3ft 7s 5s 9 11 mph 1019.1mb 78f 83f
4:50pm 1.3ft 7s 5s 9 11 mph 1019.2mb 78f 83f
3:50pm 1.3ft 8s 5s 7 7 mph 1019.4mb 78f 82f
2:50pm 1.6ft 7s 5s 7 7 mph 1019.8mb 79f 81f
1:50pm 1.3ft 7s 4s 11 11 mph 1020mb 77f 81f
12:50pm 1.3ft 8s 5s 7 7 mph 1020.1mb 77f 80f
11:50am 1.3ft 8s 5s 2 4 mph 1020.2mb 77f 80f
10:50am 1.6ft 7s 5s 2 2 mph 1020.2mb 77f 80f
9:50am 1.6ft 7s 5s 4 7 mph 1020.1mb 77f 80f
8:50am 1.6ft 7s 4s 7 7 mph 1019.9mb 78f 80f
7:50am 1.6ft 7s 4s 9 9 mph 1019.5mb 77f 80f
6:50am 1.3ft 7s 4s 9 11 mph 1019mb 77f 80f
5:50am 1.6ft 7s 5s 11 11 mph 1018.5mb 77f 79f
4:50am 1.6ft 7s 5s 9 11 mph 1018.2mb 77f 79f
3:50am 1.6ft 6s 5s 9 11 mph 1018mb 77f 79f
2:50am 2ft 7s 5s 9 9 mph 1018.1mb 77f 79f
1:50am 2ft 7s 5s 11 13 mph 1018mb 77f 79f
12:50am 2ft 7s 5s 11 13 mph 1018mb 77f 80f
Wed 08/15 11:50pm 1.6ft 6s 5s 9 11 mph 1017.7mb 79f 81f
10:50pm 2ft 7s 5s 11 13 mph 1017.7mb 79f 82f
9:50pm 2ft 6s 5s 9 11 mph 1017.4mb 79f 82f
8:50pm 2ft 7s 5s 7 9 mph 1016.9mb 78f 82f
7:50pm 1.6ft 8s 5s 7 9 mph 1016.5mb 77f 82f
6:50pm 2ft 7s 5s 9 11 mph 1016.1mb 77f 84f
5:50pm 1.6ft 8s 5s 4 7 mph 1016mb 77f 82f
4:50pm 1.3ft 7s 4s 7 9 mph 1016.1mb 77f 82f
3:50pm 1.3ft 8s 4s 9 11 mph 1015.8mb 77f 81f
2:50pm 1.6ft 8s 4s 11 13 mph 1016mb 77f 81f
1:50pm 1.6ft 8s 5s 9 11 mph 1016.2mb 77f 81f
12:50pm 1.6ft 7s 4s 9 11 mph 1016.4mb 77f 80f
11:50am 1.6ft 5s 4s 9 11 mph 1016.5mb 77f 79f
10:50am 2ft 6s 4s 11 13 mph 1016.3mb 78f 79f
9:50am 2ft 5s 4s 13 13 mph 1016mb 78f 78f
8:50am 2ft 6s 4s 13 16 mph 1015.8mb 78f 78f
7:50am 2ft 7s 4s 16 18 mph 1015.1mb 78f 79f
6:50am 2.5ft 6s 4s 16 18 mph 1014.8mb 78f 79f
5:50am 2ft 7s 4s 16 16 mph 1014.2mb 78f 79f
4:50am 2ft 7s 5s 13 16 mph 1014.1mb 78f 79f
3:50am 2ft 7s 5s 13 16 mph 1014mb 78f 80f
2:50am 2ft 8s 5s 16 18 mph 1014mb 78f 78f
1:50am 2.5ft 8s 4s 13 16 mph 1014.5mb 78f 78f
12:50am 2.5ft 6s  -  11 13 mph 1014.6mb 78f 78f
Tue 08/14 11:50pm 2.5ft 4s 4s 16 18 mph 1014.6mb 79f 78f
10:50pm 2.5ft 6s 4s 18 20 mph 1013.8mb 79f 81f
9:50pm 3ft 6s 4s 16 18 mph 1013.8mb 79f 81f
8:50pm 2.5ft 5s 4s 18 20 mph 1013.6mb 79f 81f
7:50pm 3ft 5s 4s 20 25 mph 1013.3mb 80f 80f
6:50pm 2.5ft 6s 4s 16 20 mph 1012.8mb 80f 82f
3:50pm 2.5ft 7s 4s 16 18 mph 1012.5mb 80f 81f
2:50pm 2ft 6s 4s 13 16 mph 1013.1mb 80f 81f
1:50pm 2ft 7s 4s 16 18 mph 1013.7mb 80f 80f
12:50pm 2ft 6s 4s 13 18 mph 1013.9mb 80f 80f
11:50am 2ft 6s 4s 13 16 mph 1014.2mb 80f 78f
10:50am 2ft 6s 4s 9 11 mph 1014.4mb 80f 77f
9:50am 2.5ft 7s 4s 13 18 mph 1013.9mb 79f 77f
8:50am 2.5ft 7s 4s 16 18 mph 1013.8mb 79f 77f
7:50am 2.5ft 6s 5s 13 16 mph 1013.9mb 79f 77f
6:50am 2.5ft 6s 5s 11 13 mph 1013.9mb 79f 77f
5:50am 2.5ft 8s 5s 11 13 mph 1013.4mb 79f 77f
4:50am 2.5ft 7s 5s 13 13 mph 1013.1mb 79f 77f
3:50am 2.5ft 7s 5s 13 16 mph 1012.8mb 79f 78f
2:50am 2.5ft 7s 5s 11 11 mph 1012.7mb 80f 79f
1:50am 2.5ft 7s 4s 16 18 mph 1012.8mb 80f 80f
12:50am 2.5ft 6s 4s 13 16 mph 1013.2mb 80f 82f
Mon 08/13 11:50pm 2.5ft 7s 4s 16 18 mph 1013mb 80f 82f
10:50pm 2.5ft 5s 4s 16 20 mph 1013.6mb 80f 82f
9:50pm 3ft 6s 4s 16 16 mph 1014mb 80f 81f
8:50pm 3ft 6s 4s 16 18 mph 1013.7mb 80f 82f
7:50pm 3ft 6s 4s 18 22 mph 1013mb 80f 82f
5:50pm 2.5ft 7s 4s 18 20 mph 1012.9mb 81f 83f
4:50pm 2.5ft 7s 4s 18 20 mph 1013mb 82f 83f
3:50pm 2ft 7s 4s 18 20 mph 1013.4mb 82f 83f
2:50pm 1.6ft 7s 5s 16 18 mph 1014.1mb 82f 82f
1:50pm 1.6ft 7s 6s 9 11 mph 1014.6mb 82f 82f
12:50pm 2ft 6s 6s 7 7 mph 1014.7mb 82f 80f
11:50am 1.6ft 7s 5s 4 7 mph 1015.4mb 81f 80f
10:50am 1.6ft 7s 5s 7 9 mph 1015.4mb 81f 79f
9:50am 1.6ft 6s 5s 4 4 mph 1015.1mb 81f 79f
8:50am 1.3ft 5s 5s 9 11 mph 1014.7mb 81f 80f
6:50am 1.6ft 5s 5s 4 7 mph 1015mb 81f 80f
5:50am 1.3ft 6s 5s 9 11 mph 1015mb 82f 80f